Delamere, North Dakota
Current Conditions -  °F | °C
As of 3:35 PM on Friday 24 Oct 2014 (Local Time) from KGWR Reporting Station
Clear Clear  
Wind Chill: 79°   Ceiling: Unl
Heat Index: 79°   Visibility: 10mi
Dew Point: 43°   Wind: 14mph
Humidity: 28%   Direction: 270°W
Pressure: 29.82"   Gusts: NA
Location:  46.239°N, 97.3829°W
Report Text: KGWR 242035Z AUTO 27012KT 10SM CLR 26/06 A2982 RMK A01 P000
Loading
Personal Weather Stations






























Interactive Weather Map
Tropical Storm Tracking
New forecast layout! Learn more

10-Day Weather Forecast

Advertisements
Track Severe Weather on mobile